sensor_id;sensor_type;location;lat;lon;timestamp;P1;durP1;ratioP1;P2;durP2;ratioP2
64641;SDS011;59936;51.490;5.436;2023-05-07T00:02:57;14.85;;;9.60;;
64641;SDS011;59936;51.490;5.436;2023-05-07T00:07:49;13.10;;;9.75;;
64641;SDS011;59936;51.490;5.436;2023-05-07T00:12:40;14.25;;;9.90;;
64641;SDS011;59936;51.490;5.436;2023-05-07T00:17:32;12.60;;;10.20;;
64641;SDS011;59936;51.490;5.436;2023-05-07T00:19:59;13.20;;;10.00;;
64641;SDS011;59936;51.490;5.436;2023-05-07T00:24:50;11.00;;;9.55;;
64641;SDS011;59936;51.490;5.436;2023-05-07T00:27:16;12.70;;;10.70;;
64641;SDS011;59936;51.490;5.436;2023-05-07T00:32:08;10.70;;;9.60;;
64641;SDS011;59936;51.490;5.436;2023-05-07T00:34:34;16.50;;;10.80;;
64641;SDS011;59936;51.490;5.436;2023-05-07T00:39:26;11.40;;;10.20;;
64641;SDS011;59936;51.490;5.436;2023-05-07T00:44:17;12.60;;;9.50;;
64641;SDS011;59936;51.490;5.436;2023-05-07T00:46:43;14.90;;;10.20;;
64641;SDS011;59936;51.490;5.436;2023-05-07T00:49:10;11.50;;;10.30;;
64641;SDS011;59936;51.490;5.436;2023-05-07T00:51:36;13.10;;;10.90;;
64641;SDS011;59936;51.490;5.436;2023-05-07T00:54:02;19.50;;;12.40;;
64641;SDS011;59936;51.490;5.436;2023-05-07T00:56:28;14.30;;;10.80;;
64641;SDS011;59936;51.490;5.436;2023-05-07T00:58:54;14.90;;;11.60;;
64641;SDS011;59936;51.490;5.436;2023-05-07T01:04:36;19.50;;;12.50;;
64641;SDS011;59936;51.490;5.436;2023-05-07T01:09:28;15.30;;;12.30;;
64641;SDS011;59936;51.490;5.436;2023-05-07T01:14:21;15.00;;;12.50;;
64641;SDS011;59936;51.490;5.436;2023-05-07T01:19:13;15.90;;;11.90;;
64641;SDS011;59936;51.490;5.436;2023-05-07T01:21:46;18.10;;;13.00;;
64641;SDS011;59936;51.490;5.436;2023-05-07T01:24:13;17.80;;;12.10;;
64641;SDS011;59936;51.490;5.436;2023-05-07T01:26:40;15.00;;;12.60;;
64641;SDS011;59936;51.490;5.436;2023-05-07T01:29:06;14.70;;;12.70;;
64641;SDS011;59936;51.490;5.436;2023-05-07T01:33:59;15.20;;;12.00;;
64641;SDS011;59936;51.490;5.436;2023-05-07T01:36:26;15.10;;;12.30;;
64641;SDS011;59936;51.490;5.436;2023-05-07T01:38:54;15.70;;;12.30;;
64641;SDS011;59936;51.490;5.436;2023-05-07T01:43:46;22.60;;;12.80;;
64641;SDS011;59936;51.490;5.436;2023-05-07T01:46:12;23.40;;;14.10;;
64641;SDS011;59936;51.490;5.436;2023-05-07T01:48:39;19.10;;;14.30;;
64641;SDS011;59936;51.490;5.436;2023-05-07T01:51:06;16.00;;;13.70;;
64641;SDS011;59936;51.490;5.436;2023-05-07T01:53:35;25.00;;;16.00;;
64641;SDS011;59936;51.490;5.436;2023-05-07T01:56:02;17.90;;;13.10;;
64641;SDS011;59936;51.490;5.436;2023-05-07T02:00:53;16.55;;;12.75;;
64641;SDS011;59936;51.490;5.436;2023-05-07T02:03:19;17.40;;;13.90;;
64641;SDS011;59936;51.490;5.436;2023-05-07T02:05:45;21.60;;;15.50;;
64641;SDS011;59936;51.490;5.436;2023-05-07T02:08:11;20.90;;;15.70;;
64641;SDS011;59936;51.490;5.436;2023-05-07T02:10:37;21.90;;;16.70;;
64641;SDS011;59936;51.490;5.436;2023-05-07T02:13:03;20.40;;;16.80;;
64641;SDS011;59936;51.490;5.436;2023-05-07T02:15:28;24.20;;;15.80;;
64641;SDS011;59936;51.490;5.436;2023-05-07T02:17:58;25.30;;;16.70;;
64641;SDS011;59936;51.490;5.436;2023-05-07T02:20:33;27.30;;;19.10;;
64641;SDS011;59936;51.490;5.436;2023-05-07T02:25:25;23.75;;;18.05;;
64641;SDS011;59936;51.490;5.436;2023-05-07T02:27:51;23.40;;;19.40;;
64641;SDS011;59936;51.490;5.436;2023-05-07T02:30:17;27.60;;;20.90;;
64641;SDS011;59936;51.490;5.436;2023-05-07T02:32:43;31.00;;;22.10;;
64641;SDS011;59936;51.490;5.436;2023-05-07T02:35:09;29.40;;;21.00;;
64641;SDS011;59936;51.490;5.436;2023-05-07T02:40:00;30.35;;;22.30;;
64641;SDS011;59936;51.490;5.436;2023-05-07T02:42:26;30.10;;;21.80;;
64641;SDS011;59936;51.490;5.436;2023-05-07T02:44:52;36.30;;;23.00;;
64641;SDS011;59936;51.490;5.436;2023-05-07T02:47:18;24.70;;;19.20;;
64641;SDS011;59936;51.490;5.436;2023-05-07T02:49:44;31.70;;;20.80;;
64641;SDS011;59936;51.490;5.436;2023-05-07T02:52:09;36.90;;;22.90;;
64641;SDS011;59936;51.490;5.436;2023-05-07T02:54:35;32.60;;;23.80;;
64641;SDS011;59936;51.490;5.436;2023-05-07T02:57:01;34.20;;;22.30;;
64641;SDS011;59936;51.490;5.436;2023-05-07T02:59:27;38.60;;;22.80;;
64641;SDS011;59936;51.490;5.436;2023-05-07T03:01:53;32.00;;;22.90;;
64641;SDS011;59936;51.490;5.436;2023-05-07T03:04:19;38.80;;;25.50;;
64641;SDS011;59936;51.490;5.436;2023-05-07T03:06:44;33.60;;;24.30;;
64641;SDS011;59936;51.490;5.436;2023-05-07T03:09:10;43.40;;;29.30;;
64641;SDS011;59936;51.490;5.436;2023-05-07T03:11:36;36.50;;;24.50;;
64641;SDS011;59936;51.490;5.436;2023-05-07T03:14:02;45.40;;;29.20;;
64641;SDS011;59936;51.490;5.436;2023-05-07T03:16:28;45.20;;;27.70;;
64641;SDS011;59936;51.490;5.436;2023-05-07T03:18:54;40.50;;;25.60;;
64641;SDS011;59936;51.490;5.436;2023-05-07T03:21:20;44.10;;;30.50;;
64641;SDS011;59936;51.490;5.436;2023-05-07T03:23:46;49.20;;;28.40;;
64641;SDS011;59936;51.490;5.436;2023-05-07T03:28:37;33.75;;;23.40;;
64641;SDS011;59936;51.490;5.436;2023-05-07T03:31:03;42.10;;;28.00;;
64641;SDS011;59936;51.490;5.436;2023-05-07T03:33:29;48.30;;;32.30;;
64641;SDS011;59936;51.490;5.436;2023-05-07T03:35:55;46.60;;;29.00;;
64641;SDS011;59936;51.490;5.436;2023-05-07T03:38:21;45.50;;;29.70;;
64641;SDS011;59936;51.490;5.436;2023-05-07T03:40:46;43.70;;;30.80;;
64641;SDS011;59936;51.490;5.436;2023-05-07T03:43:12;48.00;;;32.60;;
64641;SDS011;59936;51.490;5.436;2023-05-07T03:45:38;47.80;;;32.00;;
64641;SDS011;59936;51.490;5.436;2023-05-07T03:48:04;46.60;;;31.50;;
64641;SDS011;59936;51.490;5.436;2023-05-07T03:50:30;48.50;;;31.70;;
64641;SDS011;59936;51.490;5.436;2023-05-07T03:52:56;43.50;;;30.40;;
64641;SDS011;59936;51.490;5.436;2023-05-07T03:55:21;43.90;;;30.30;;
64641;SDS011;59936;51.490;5.436;2023-05-07T03:57:47;46.20;;;31.70;;
64641;SDS011;59936;51.490;5.436;2023-05-07T04:02:39;45.30;;;29.50;;
64641;SDS011;59936;51.490;5.436;2023-05-07T04:05:05;53.30;;;34.70;;
64641;SDS011;59936;51.490;5.436;2023-05-07T04:07:31;44.80;;;29.30;;
64641;SDS011;59936;51.490;5.436;2023-05-07T04:09:57;48.60;;;31.90;;
64641;SDS011;59936;51.490;5.436;2023-05-07T04:12:22;49.30;;;32.40;;
64641;SDS011;59936;51.490;5.436;2023-05-07T04:14:48;58.20;;;34.50;;
64641;SDS011;59936;51.490;5.436;2023-05-07T04:17:14;54.50;;;33.10;;
64641;SDS011;59936;51.490;5.436;2023-05-07T04:19:40;50.10;;;33.10;;
64641;SDS011;59936;51.490;5.436;2023-05-07T04:22:06;55.70;;;33.60;;
64641;SDS011;59936;51.490;5.436;2023-05-07T04:24:32;48.10;;;33.00;;
64641;SDS011;59936;51.490;5.436;2023-05-07T04:26:57;56.60;;;34.90;;
64641;SDS011;59936;51.490;5.436;2023-05-07T04:29:23;50.30;;;34.30;;
64641;SDS011;59936;51.490;5.436;2023-05-07T04:31:49;62.00;;;35.80;;
64641;SDS011;59936;51.490;5.436;2023-05-07T04:34:15;65.00;;;36.00;;
64641;SDS011;59936;51.490;5.436;2023-05-07T04:36:41;52.40;;;34.70;;
64641;SDS011;59936;51.490;5.436;2023-05-07T04:39:07;54.30;;;34.20;;
64641;SDS011;59936;51.490;5.436;2023-05-07T04:44:01;49.90;;;32.00;;
64641;SDS011;59936;51.490;5.436;2023-05-07T04:48:52;56.75;;;31.40;;
64641;SDS011;59936;51.490;5.436;2023-05-07T04:51:18;49.40;;;32.20;;
64641;SDS011;59936;51.490;5.436;2023-05-07T04:53:44;53.10;;;33.20;;
64641;SDS011;59936;51.490;5.436;2023-05-07T04:56:10;55.80;;;35.10;;
64641;SDS011;59936;51.490;5.436;2023-05-07T04:58:35;49.70;;;32.70;;
64641;SDS011;59936;51.490;5.436;2023-05-07T05:01:01;53.90;;;34.90;;
64641;SDS011;59936;51.490;5.436;2023-05-07T05:03:27;53.50;;;35.90;;
64641;SDS011;59936;51.490;5.436;2023-05-07T05:05:53;57.00;;;36.50;;
64641;SDS011;59936;51.490;5.436;2023-05-07T05:08:19;49.30;;;34.80;;
64641;SDS011;59936;51.490;5.436;2023-05-07T05:10:45;48.30;;;32.20;;
64641;SDS011;59936;51.490;5.436;2023-05-07T05:13:10;55.40;;;35.50;;
64641;SDS011;59936;51.490;5.436;2023-05-07T05:15:36;47.00;;;34.90;;
64641;SDS011;59936;51.490;5.436;2023-05-07T05:18:02;49.30;;;34.80;;
64641;SDS011;59936;51.490;5.436;2023-05-07T05:20:28;52.30;;;35.60;;
64641;SDS011;59936;51.490;5.436;2023-05-07T05:22:54;56.30;;;36.60;;
64641;SDS011;59936;51.490;5.436;2023-05-07T05:25:20;47.00;;;33.10;;
64641;SDS011;59936;51.490;5.436;2023-05-07T05:27:45;49.50;;;36.90;;
64641;SDS011;59936;51.490;5.436;2023-05-07T05:30:11;48.50;;;34.80;;
64641;SDS011;59936;51.490;5.436;2023-05-07T05:32:38;46.40;;;35.40;;
64641;SDS011;59936;51.490;5.436;2023-05-07T05:35:04;41.70;;;32.60;;
64641;SDS011;59936;51.490;5.436;2023-05-07T05:37:30;39.60;;;32.20;;
64641;SDS011;59936;51.490;5.436;2023-05-07T05:39:56;38.50;;;31.50;;
64641;SDS011;59936;51.490;5.436;2023-05-07T05:42:21;40.10;;;33.20;;
64641;SDS011;59936;51.490;5.436;2023-05-07T05:44:48;40.00;;;31.50;;
64641;SDS011;59936;51.490;5.436;2023-05-07T05:47:14;33.60;;;30.00;;
64641;SDS011;59936;51.490;5.436;2023-05-07T05:49:40;33.30;;;28.40;;
64641;SDS011;59936;51.490;5.436;2023-05-07T05:52:06;34.70;;;28.80;;
64641;SDS011;59936;51.490;5.436;2023-05-07T05:54:32;30.60;;;27.10;;
64641;SDS011;59936;51.490;5.436;2023-05-07T05:56:58;33.10;;;25.50;;
64641;SDS011;59936;51.490;5.436;2023-05-07T05:59:24;28.60;;;25.60;;
64641;SDS011;59936;51.490;5.436;2023-05-07T06:01:49;28.60;;;25.50;;
64641;SDS011;59936;51.490;5.436;2023-05-07T06:04:15;29.40;;;26.30;;
64641;SDS011;59936;51.490;5.436;2023-05-07T06:06:41;30.10;;;24.50;;
64641;SDS011;59936;51.490;5.436;2023-05-07T06:09:07;27.60;;;23.30;;
64641;SDS011;59936;51.490;5.436;2023-05-07T06:11:33;27.10;;;24.30;;
64641;SDS011;59936;51.490;5.436;2023-05-07T06:13:59;25.70;;;22.90;;
64641;SDS011;59936;51.490;5.436;2023-05-07T06:16:25;27.80;;;25.00;;
64641;SDS011;59936;51.490;5.436;2023-05-07T06:18:50;26.20;;;22.40;;
64641;SDS011;59936;51.490;5.436;2023-05-07T06:21:16;28.20;;;25.40;;
64641;SDS011;59936;51.490;5.436;2023-05-07T06:23:42;26.70;;;23.90;;
64641;SDS011;59936;51.490;5.436;2023-05-07T06:26:08;26.50;;;23.80;;
64641;SDS011;59936;51.490;5.436;2023-05-07T06:28:34;25.70;;;22.90;;
64641;SDS011;59936;51.490;5.436;2023-05-07T06:31:16;23.30;;;20.90;;
64641;SDS011;59936;51.490;5.436;2023-05-07T06:33:43;25.10;;;22.50;;
64641;SDS011;59936;51.490;5.436;2023-05-07T06:36:09;23.40;;;20.90;;
64641;SDS011;59936;51.490;5.436;2023-05-07T06:38:35;24.60;;;21.90;;
64641;SDS011;59936;51.490;5.436;2023-05-07T06:41:01;23.40;;;20.90;;
64641;SDS011;59936;51.490;5.436;2023-05-07T06:43:27;24.30;;;21.80;;
64641;SDS011;59936;51.490;5.436;2023-05-07T06:45:53;24.20;;;21.70;;
64641;SDS011;59936;51.490;5.436;2023-05-07T06:48:19;22.70;;;20.20;;
64641;SDS011;59936;51.490;5.436;2023-05-07T06:50:45;19.90;;;18.00;;
64641;SDS011;59936;51.490;5.436;2023-05-07T06:53:11;20.30;;;18.20;;
64641;SDS011;59936;51.490;5.436;2023-05-07T06:55:36;20.30;;;18.20;;
64641;SDS011;59936;51.490;5.436;2023-05-07T06:58:02;21.00;;;18.90;;
64641;SDS011;59936;51.490;5.436;2023-05-07T07:00:28;22.00;;;19.70;;
64641;SDS011;59936;51.490;5.436;2023-05-07T07:02:54;23.50;;;20.70;;
64641;SDS011;59936;51.490;5.436;2023-05-07T07:05:20;23.20;;;19.40;;
64641;SDS011;59936;51.490;5.436;2023-05-07T07:07:46;21.30;;;19.10;;
64641;SDS011;59936;51.490;5.436;2023-05-07T07:10:12;20.80;;;18.70;;
64641;SDS011;59936;51.490;5.436;2023-05-07T07:12:38;27.20;;;19.70;;
64641;SDS011;59936;51.490;5.436;2023-05-07T07:15:04;23.30;;;20.60;;
64641;SDS011;59936;51.490;5.436;2023-05-07T07:17:30;21.90;;;19.70;;
64641;SDS011;59936;51.490;5.436;2023-05-07T07:19:56;21.00;;;18.90;;
64641;SDS011;59936;51.490;5.436;2023-05-07T07:22:22;20.70;;;18.70;;
64641;SDS011;59936;51.490;5.436;2023-05-07T07:24:47;23.50;;;17.70;;
64641;SDS011;59936;51.490;5.436;2023-05-07T07:27:13;20.20;;;18.20;;
64641;SDS011;59936;51.490;5.436;2023-05-07T07:29:39;20.90;;;18.60;;
64641;SDS011;59936;51.490;5.436;2023-05-07T07:32:05;20.00;;;17.70;;
64641;SDS011;59936;51.490;5.436;2023-05-07T07:34:31;21.00;;;16.40;;
64641;SDS011;59936;51.490;5.436;2023-05-07T07:36:57;19.50;;;17.50;;
64641;SDS011;59936;51.490;5.436;2023-05-07T07:39:23;19.80;;;16.80;;
64641;SDS011;59936;51.490;5.436;2023-05-07T07:41:48;20.10;;;18.00;;
64641;SDS011;59936;51.490;5.436;2023-05-07T07:44:14;19.90;;;16.10;;
64641;SDS011;59936;51.490;5.436;2023-05-07T07:46:40;20.40;;;17.00;;
64641;SDS011;59936;51.490;5.436;2023-05-07T07:49:06;20.80;;;17.60;;
64641;SDS011;59936;51.490;5.436;2023-05-07T07:51:32;22.20;;;18.40;;
64641;SDS011;59936;51.490;5.436;2023-05-07T07:53:58;19.40;;;17.40;;
64641;SDS011;59936;51.490;5.436;2023-05-07T07:56:23;21.00;;;18.30;;
64641;SDS011;59936;51.490;5.436;2023-05-07T07:58:49;19.50;;;17.40;;
64641;SDS011;59936;51.490;5.436;2023-05-07T08:01:15;20.10;;;17.40;;
64641;SDS011;59936;51.490;5.436;2023-05-07T08:03:41;18.50;;;16.60;;
64641;SDS011;59936;51.490;5.436;2023-05-07T08:06:07;18.20;;;16.20;;
64641;SDS011;59936;51.490;5.436;2023-05-07T08:08:33;19.30;;;17.30;;
64641;SDS011;59936;51.490;5.436;2023-05-07T08:10:59;18.40;;;16.60;;
64641;SDS011;59936;51.490;5.436;2023-05-07T08:13:24;18.40;;;16.50;;
64641;SDS011;59936;51.490;5.436;2023-05-07T08:15:50;20.40;;;16.10;;
64641;SDS011;59936;51.490;5.436;2023-05-07T08:18:16;16.90;;;15.20;;
64641;SDS011;59936;51.490;5.436;2023-05-07T08:20:42;17.70;;;15.50;;
64641;SDS011;59936;51.490;5.436;2023-05-07T08:23:08;15.60;;;14.10;;
64641;SDS011;59936;51.490;5.436;2023-05-07T08:25:34;18.60;;;15.40;;
64641;SDS011;59936;51.490;5.436;2023-05-07T08:28:00;16.80;;;15.20;;
64641;SDS011;59936;51.490;5.436;2023-05-07T08:30:26;18.80;;;14.40;;
64641;SDS011;59936;51.490;5.436;2023-05-07T08:32:52;17.90;;;14.90;;
64641;SDS011;59936;51.490;5.436;2023-05-07T08:35:18;17.70;;;15.90;;
64641;SDS011;59936;51.490;5.436;2023-05-07T08:37:44;17.80;;;16.20;;
64641;SDS011;59936;51.490;5.436;2023-05-07T08:40:10;18.20;;;15.40;;
64641;SDS011;59936;51.490;5.436;2023-05-07T08:42:36;17.50;;;14.90;;
64641;SDS011;59936;51.490;5.436;2023-05-07T08:45:02;17.30;;;15.50;;
64641;SDS011;59936;51.490;5.436;2023-05-07T08:47:29;17.00;;;15.30;;
64641;SDS011;59936;51.490;5.436;2023-05-07T08:49:59;20.00;;;15.80;;
64641;SDS011;59936;51.490;5.436;2023-05-07T08:52:26;18.90;;;15.50;;
64641;SDS011;59936;51.490;5.436;2023-05-07T08:54:52;19.70;;;17.10;;
64641;SDS011;59936;51.490;5.436;2023-05-07T08:57:18;18.60;;;16.60;;
64641;SDS011;59936;51.490;5.436;2023-05-07T08:59:44;19.20;;;17.40;;
64641;SDS011;59936;51.490;5.436;2023-05-07T09:02:09;18.20;;;16.50;;
64641;SDS011;59936;51.490;5.436;2023-05-07T09:04:36;17.80;;;16.10;;
64641;SDS011;59936;51.490;5.436;2023-05-07T09:07:02;18.00;;;16.10;;
64641;SDS011;59936;51.490;5.436;2023-05-07T09:09:28;18.10;;;16.20;;
64641;SDS011;59936;51.490;5.436;2023-05-07T09:11:57;19.50;;;17.40;;
64641;SDS011;59936;51.490;5.436;2023-05-07T09:14:23;18.50;;;16.50;;
64641;SDS011;59936;51.490;5.436;2023-05-07T09:16:51;19.20;;;17.30;;
64641;SDS011;59936;51.490;5.436;2023-05-07T09:19:21;18.30;;;16.50;;
64641;SDS011;59936;51.490;5.436;2023-05-07T09:21:48;19.60;;;16.30;;
64641;SDS011;59936;51.490;5.436;2023-05-07T09:24:15;18.70;;;16.80;;
64641;SDS011;59936;51.490;5.436;2023-05-07T09:26:41;17.60;;;16.00;;
64641;SDS011;59936;51.490;5.436;2023-05-07T09:29:07;19.70;;;16.20;;
64641;SDS011;59936;51.490;5.436;2023-05-07T09:31:38;17.80;;;15.90;;
64641;SDS011;59936;51.490;5.436;2023-05-07T09:34:04;18.60;;;16.80;;
64641;SDS011;59936;51.490;5.436;2023-05-07T09:36:31;18.40;;;16.70;;
64641;SDS011;59936;51.490;5.436;2023-05-07T09:38:59;19.60;;;15.70;;
64641;SDS011;59936;51.490;5.436;2023-05-07T09:41:25;17.90;;;16.10;;
64641;SDS011;59936;51.490;5.436;2023-05-07T09:43:55;18.60;;;16.70;;
64641;SDS011;59936;51.490;5.436;2023-05-07T09:46:27;18.30;;;16.60;;
64641;SDS011;59936;51.490;5.436;2023-05-07T09:48:56;18.80;;;17.00;;
64641;SDS011;59936;51.490;5.436;2023-05-07T09:51:30;18.20;;;16.50;;
64641;SDS011;59936;51.490;5.436;2023-05-07T09:53:59;18.20;;;16.30;;
64641;SDS011;59936;51.490;5.436;2023-05-07T09:56:25;18.70;;;16.90;;
64641;SDS011;59936;51.490;5.436;2023-05-07T09:58:55;16.10;;;14.40;;
64641;SDS011;59936;51.490;5.436;2023-05-07T10:01:22;17.90;;;16.10;;
64641;SDS011;59936;51.490;5.436;2023-05-07T10:03:51;19.10;;;17.00;;
64641;SDS011;59936;51.490;5.436;2023-05-07T10:06:18;18.60;;;16.70;;
64641;SDS011;59936;51.490;5.436;2023-05-07T10:08:48;18.30;;;16.50;;
64641;SDS011;59936;51.490;5.436;2023-05-07T10:11:15;17.70;;;15.90;;
64641;SDS011;59936;51.490;5.436;2023-05-07T10:13:42;16.80;;;15.30;;
64641;SDS011;59936;51.490;5.436;2023-05-07T10:16:08;16.80;;;15.20;;
64641;SDS011;59936;51.490;5.436;2023-05-07T10:18:34;15.30;;;13.80;;
64641;SDS011;59936;51.490;5.436;2023-05-07T10:23:33;14.40;;;13.00;;
64641;SDS011;59936;51.490;5.436;2023-05-07T10:26:04;15.60;;;14.00;;
64641;SDS011;59936;51.490;5.436;2023-05-07T10:28:33;14.70;;;13.20;;
64641;SDS011;59936;51.490;5.436;2023-05-07T10:33:41;13.30;;;11.70;;
64641;SDS011;59936;51.490;5.436;2023-05-07T10:36:09;16.10;;;13.60;;
64641;SDS011;59936;51.490;5.436;2023-05-07T10:38:35;16.70;;;14.50;;
64641;SDS011;59936;51.490;5.436;2023-05-07T10:41:01;13.60;;;12.30;;
64641;SDS011;59936;51.490;5.436;2023-05-07T10:43:37;12.70;;;11.60;;
64641;SDS011;59936;51.490;5.436;2023-05-07T10:46:09;14.20;;;12.80;;
64641;SDS011;59936;51.490;5.436;2023-05-07T10:51:28;13.60;;;12.20;;
64641;SDS011;59936;51.490;5.436;2023-05-07T10:56:36;13.30;;;12.20;;
64641;SDS011;59936;51.490;5.436;2023-05-07T11:01:50;11.90;;;10.60;;
64641;SDS011;59936;51.490;5.436;2023-05-07T11:04:20;11.50;;;10.40;;
64641;SDS011;59936;51.490;5.436;2023-05-07T11:15:06;12.60;;;11.40;;
64641;SDS011;59936;51.490;5.436;2023-05-07T11:17:34;14.60;;;11.80;;
64641;SDS011;59936;51.490;5.436;2023-05-07T11:20:17;13.00;;;11.60;;
64641;SDS011;59936;51.490;5.436;2023-05-07T11:22:43;11.30;;;10.20;;
64641;SDS011;59936;51.490;5.436;2023-05-07T11:25:09;13.40;;;10.70;;
64641;SDS011;59936;51.490;5.436;2023-05-07T11:27:35;15.30;;;10.70;;
64641;SDS011;59936;51.490;5.436;2023-05-07T11:30:01;11.50;;;10.40;;
64641;SDS011;59936;51.490;5.436;2023-05-07T11:32:28;11.30;;;10.10;;
64641;SDS011;59936;51.490;5.436;2023-05-07T11:34:55;10.80;;;9.90;;
64641;SDS011;59936;51.490;5.436;2023-05-07T11:37:23;10.00;;;9.10;;
64641;SDS011;59936;51.490;5.436;2023-05-07T11:39:50;10.20;;;9.30;;
64641;SDS011;59936;51.490;5.436;2023-05-07T11:42:28;10.50;;;9.50;;
64641;SDS011;59936;51.490;5.436;2023-05-07T11:44:54;10.60;;;9.60;;
64641;SDS011;59936;51.490;5.436;2023-05-07T11:47:21;14.10;;;10.80;;
64641;SDS011;59936;51.490;5.436;2023-05-07T11:49:50;10.70;;;9.70;;
64641;SDS011;59936;51.490;5.436;2023-05-07T11:52:17;11.70;;;10.50;;
64641;SDS011;59936;51.490;5.436;2023-05-07T11:54:51;12.70;;;10.00;;
64641;SDS011;59936;51.490;5.436;2023-05-07T11:57:18;9.40;;;8.50;;
64641;SDS011;59936;51.490;5.436;2023-05-07T11:59:44;11.00;;;8.90;;
64641;SDS011;59936;51.490;5.436;2023-05-07T12:02:10;11.30;;;9.60;;
64641;SDS011;59936;51.490;5.436;2023-05-07T12:04:37;10.20;;;9.20;;
64641;SDS011;59936;51.490;5.436;2023-05-07T12:07:03;10.70;;;9.60;;
64641;SDS011;59936;51.490;5.436;2023-05-07T12:09:32;9.70;;;8.70;;
64641;SDS011;59936;51.490;5.436;2023-05-07T12:12:02;9.20;;;8.00;;
64641;SDS011;59936;51.490;5.436;2023-05-07T12:14:29;9.20;;;8.30;;
64641;SDS011;59936;51.490;5.436;2023-05-07T12:16:55;10.30;;;9.30;;
64641;SDS011;59936;51.490;5.436;2023-05-07T12:19:21;10.80;;;9.40;;
64641;SDS011;59936;51.490;5.436;2023-05-07T12:21:47;12.20;;;9.60;;
64641;SDS011;59936;51.490;5.436;2023-05-07T12:24:14;10.70;;;8.70;;
64641;SDS011;59936;51.490;5.436;2023-05-07T12:26:40;10.50;;;9.50;;
64641;SDS011;59936;51.490;5.436;2023-05-07T12:29:06;10.00;;;8.90;;
64641;SDS011;59936;51.490;5.436;2023-05-07T12:31:32;10.80;;;9.50;;
64641;SDS011;59936;51.490;5.436;2023-05-07T12:33:58;5.20;;;4.10;;
64641;SDS011;59936;51.490;5.436;2023-05-07T12:36:24;2.50;;;2.30;;
64641;SDS011;59936;51.490;5.436;2023-05-07T12:38:50;3.10;;;1.90;;
64641;SDS011;59936;51.490;5.436;2023-05-07T12:41:16;2.60;;;1.50;;
64641;SDS011;59936;51.490;5.436;2023-05-07T12:43:45;3.80;;;1.50;;
64641;SDS011;59936;51.490;5.436;2023-05-07T12:46:11;6.10;;;2.40;;
64641;SDS011;59936;51.490;5.436;2023-05-07T12:48:37;3.40;;;3.00;;
64641;SDS011;59936;51.490;5.436;2023-05-07T12:51:04;11.40;;;3.60;;
64641;SDS011;59936;51.490;5.436;2023-05-07T12:53:31;8.30;;;3.50;;
64641;SDS011;59936;51.490;5.436;2023-05-07T12:55:57;13.70;;;4.20;;
64641;SDS011;59936;51.490;5.436;2023-05-07T12:58:32;9.30;;;4.30;;
64641;SDS011;59936;51.490;5.436;2023-05-07T13:01:01;11.00;;;4.40;;
64641;SDS011;59936;51.490;5.436;2023-05-07T13:03:31;8.20;;;3.90;;
64641;SDS011;59936;51.490;5.436;2023-05-07T13:06:00;11.70;;;3.90;;
64641;SDS011;59936;51.490;5.436;2023-05-07T13:08:34;5.40;;;3.20;;
64641;SDS011;59936;51.490;5.436;2023-05-07T13:11:06;8.10;;;3.60;;
64641;SDS011;59936;51.490;5.436;2023-05-07T13:13:33;5.40;;;3.70;;
64641;SDS011;59936;51.490;5.436;2023-05-07T13:16:01;13.20;;;4.30;;
64641;SDS011;59936;51.490;5.436;2023-05-07T13:18:29;4.30;;;3.80;;
64641;SDS011;59936;51.490;5.436;2023-05-07T13:20:56;8.80;;;5.00;;
64641;SDS011;59936;51.490;5.436;2023-05-07T13:23:22;11.90;;;5.30;;
64641;SDS011;59936;51.490;5.436;2023-05-07T13:25:49;9.30;;;5.60;;
64641;SDS011;59936;51.490;5.436;2023-05-07T13:28:15;9.80;;;4.90;;
64641;SDS011;59936;51.490;5.436;2023-05-07T13:30:41;10.70;;;5.30;;
64641;SDS011;59936;51.490;5.436;2023-05-07T13:33:07;8.90;;;5.50;;
64641;SDS011;59936;51.490;5.436;2023-05-07T13:35:33;9.50;;;4.60;;
64641;SDS011;59936;51.490;5.436;2023-05-07T13:37:59;6.30;;;4.00;;
64641;SDS011;59936;51.490;5.436;2023-05-07T13:40:25;5.10;;;4.60;;
64641;SDS011;59936;51.490;5.436;2023-05-07T13:42:51;11.00;;;4.70;;
64641;SDS011;59936;51.490;5.436;2023-05-07T13:45:19;8.10;;;5.40;;
64641;SDS011;59936;51.490;5.436;2023-05-07T13:47:46;5.50;;;4.60;;
64641;SDS011;59936;51.490;5.436;2023-05-07T13:50:12;6.60;;;5.30;;
64641;SDS011;59936;51.490;5.436;2023-05-07T13:52:38;8.20;;;5.50;;
64641;SDS011;59936;51.490;5.436;2023-05-07T13:55:04;9.10;;;6.20;;
64641;SDS011;59936;51.490;5.436;2023-05-07T13:57:30;9.60;;;6.00;;
64641;SDS011;59936;51.490;5.436;2023-05-07T13:59:56;8.80;;;7.10;;
64641;SDS011;59936;51.490;5.436;2023-05-07T14:02:22;10.80;;;7.30;;
64641;SDS011;59936;51.490;5.436;2023-05-07T14:04:47;10.00;;;7.00;;
64641;SDS011;59936;51.490;5.436;2023-05-07T14:07:13;7.10;;;6.40;;
64641;SDS011;59936;51.490;5.436;2023-05-07T14:09:39;7.40;;;6.80;;
64641;SDS011;59936;51.490;5.436;2023-05-07T14:12:05;7.90;;;7.10;;
64641;SDS011;59936;51.490;5.436;2023-05-07T14:14:31;6.20;;;5.60;;
64641;SDS011;59936;51.490;5.436;2023-05-07T14:16:57;9.00;;;6.00;;
64641;SDS011;59936;51.490;5.436;2023-05-07T14:19:23;8.30;;;6.70;;
64641;SDS011;59936;51.490;5.436;2023-05-07T14:21:49;7.60;;;6.70;;
64641;SDS011;59936;51.490;5.436;2023-05-07T14:24:14;6.50;;;5.90;;
64641;SDS011;59936;51.490;5.436;2023-05-07T14:26:40;9.40;;;6.90;;
64641;SDS011;59936;51.490;5.436;2023-05-07T14:29:06;9.00;;;8.20;;
64641;SDS011;59936;51.490;5.436;2023-05-07T14:31:32;8.20;;;7.40;;
64641;SDS011;59936;51.490;5.436;2023-05-07T14:33:58;8.90;;;8.00;;
64641;SDS011;59936;51.490;5.436;2023-05-07T14:36:24;10.30;;;8.10;;
64641;SDS011;59936;51.490;5.436;2023-05-07T14:38:50;10.50;;;8.20;;
64641;SDS011;59936;51.490;5.436;2023-05-07T14:41:16;11.20;;;9.90;;
64641;SDS011;59936;51.490;5.436;2023-05-07T14:43:42;10.70;;;9.60;;
64641;SDS011;59936;51.490;5.436;2023-05-07T14:46:08;10.70;;;9.70;;
64641;SDS011;59936;51.490;5.436;2023-05-07T14:48:34;11.70;;;10.60;;
64641;SDS011;59936;51.490;5.436;2023-05-07T14:50:59;13.00;;;11.80;;
64641;SDS011;59936;51.490;5.436;2023-05-07T14:53:25;14.30;;;13.00;;
64641;SDS011;59936;51.490;5.436;2023-05-07T14:55:51;16.20;;;13.30;;
64641;SDS011;59936;51.490;5.436;2023-05-07T14:58:17;13.40;;;12.00;;
64641;SDS011;59936;51.490;5.436;2023-05-07T15:00:43;13.10;;;11.20;;
64641;SDS011;59936;51.490;5.436;2023-05-07T15:03:09;15.60;;;14.00;;
64641;SDS011;59936;51.490;5.436;2023-05-07T15:05:36;11.90;;;10.80;;
64641;SDS011;59936;51.490;5.436;2023-05-07T15:08:03;9.40;;;8.60;;
64641;SDS011;59936;51.490;5.436;2023-05-07T15:10:28;9.70;;;7.80;;
64641;SDS011;59936;51.490;5.436;2023-05-07T15:12:54;10.50;;;7.30;;
64641;SDS011;59936;51.490;5.436;2023-05-07T15:15:20;8.40;;;7.60;;
64641;SDS011;59936;51.490;5.436;2023-05-07T15:17:46;8.30;;;7.60;;
64641;SDS011;59936;51.490;5.436;2023-05-07T15:20:12;8.30;;;7.50;;
64641;SDS011;59936;51.490;5.436;2023-05-07T15:22:38;8.10;;;7.30;;
64641;SDS011;59936;51.490;5.436;2023-05-07T15:25:04;9.80;;;8.90;;
64641;SDS011;59936;51.490;5.436;2023-05-07T15:27:30;14.70;;;12.00;;
64641;SDS011;59936;51.490;5.436;2023-05-07T15:29:56;14.10;;;11.90;;
64641;SDS011;59936;51.490;5.436;2023-05-07T15:32:23;15.60;;;13.80;;
64641;SDS011;59936;51.490;5.436;2023-05-07T15:34:48;16.00;;;14.70;;